Wendel, West Virginia
Current Conditions -  °F | °C
As of 2:53 AM on Friday 19 Dec 2014 (Local Time) from KCKB Reporting Station
Overcast Overcast  
Wind Chill: 27°   Ceiling: 1700
Heat Index: 27°   Visibility: 9mi
Dew Point: 22°   Wind: 3mph
Humidity: 81%   Direction: 250°WSW
Pressure: 30.17"   Gusts: NA
Location:  39.2753°N, 80.1249°W
Report Text: KCKB 190753Z 25003KT 9SM OVC017 M03/M06 A3017 RMK AO2 SLP227 T10281056
Loading
Personal Weather Stations






























Interactive Weather Map New forecast layout! Learn more

10-Day Weather Forecast

Advertisements
Track Severe Weather on mobile